createdAt,value
2018-02-14T00:04:45.091Z,-2.90
2018-02-14T00:10:49.590Z,-2.93
2018-02-14T00:16:54.108Z,-2.86
2018-02-14T00:23:00.119Z,-2.83
2018-02-14T00:29:04.645Z,-2.87
2018-02-14T00:35:09.131Z,-2.83
2018-02-14T00:41:13.639Z,-2.78
2018-02-14T00:47:18.240Z,-2.76
2018-02-14T00:53:22.918Z,-2.78
2018-02-14T00:59:27.530Z,-2.70
2018-02-14T01:05:32.388Z,-2.62
2018-02-14T01:11:37.007Z,-2.60
2018-02-14T01:17:41.663Z,-2.55
2018-02-14T01:23:46.904Z,-2.60
2018-02-14T01:29:52.318Z,-2.58
2018-02-14T01:35:56.884Z,-2.70
2018-02-14T01:42:01.508Z,-2.62
2018-02-14T01:48:06.055Z,-2.72
2018-02-14T01:54:10.539Z,-2.66
2018-02-14T02:00:15.098Z,-2.61
2018-02-14T02:06:19.794Z,-2.60
2018-02-14T02:12:24.674Z,-2.56
2018-02-14T02:18:29.228Z,-2.59
2018-02-14T02:24:33.798Z,-2.56
2018-02-14T02:30:38.451Z,-2.66
2018-02-14T02:36:43.157Z,-2.73
2018-02-14T02:42:47.847Z,-2.73
2018-02-14T02:48:53.609Z,-2.69
2018-02-14T02:54:58.207Z,-2.78
2018-02-14T03:01:03.554Z,-2.91
2018-02-14T03:07:08.046Z,-2.95
2018-02-14T03:13:12.565Z,-3.15
2018-02-14T03:19:17.077Z,-3.13
2018-02-14T03:25:22.342Z,-3.24
2018-02-14T03:31:26.914Z,-3.08
2018-02-14T03:37:31.513Z,-3.03
2018-02-14T03:43:36.008Z,-2.94
2018-02-14T03:49:40.737Z,-3.09
2018-02-14T03:55:46.230Z,-3.08
2018-02-14T04:01:52.365Z,-3.09
2018-02-14T04:07:56.977Z,-3.26
2018-02-14T04:14:01.864Z,-3.27
2018-02-14T04:20:07.093Z,-3.34
2018-02-14T04:26:11.928Z,-3.25
2018-02-14T04:32:17.168Z,-3.27
2018-02-14T04:38:21.899Z,-3.33
2018-02-14T04:44:27.200Z,-3.35
2018-02-14T04:50:32.465Z,-3.41
2018-02-14T04:56:36.939Z,-3.52
2018-02-14T05:02:41.656Z,-3.54
2018-02-14T05:08:47.226Z,-3.58
2018-02-14T05:14:51.782Z,-3.61
2018-02-14T05:20:56.418Z,-3.73
2018-02-14T05:27:01.790Z,-3.60
2018-02-14T05:33:06.353Z,-3.45
2018-02-14T05:39:11.116Z,-3.37
2018-02-14T05:45:15.632Z,-3.54
2018-02-14T05:51:20.713Z,-3.64
2018-02-14T05:57:25.522Z,-3.69
2018-02-14T06:03:30.017Z,-3.74
2018-02-14T06:09:35.318Z,-3.80
2018-02-14T06:15:40.683Z,-3.90
2018-02-14T06:21:46.027Z,-3.93
2018-02-14T06:27:51.038Z,-4.02
2018-02-14T06:33:55.710Z,-3.95
2018-02-14T06:40:00.208Z,-3.97
2018-02-14T06:46:04.706Z,-3.79
2018-02-14T06:52:09.220Z,-3.74
2018-02-14T06:58:13.920Z,-3.58
2018-02-14T07:04:18.869Z,-3.36
2018-02-14T07:10:24.422Z,-3.32
2018-02-14T07:16:29.350Z,-3.22
2018-02-14T07:22:33.902Z,-3.20
2018-02-14T07:28:38.379Z,-3.17
2018-02-14T07:34:42.882Z,-3.02
2018-02-14T07:40:48.138Z,-2.97
2018-02-14T07:46:52.692Z,-2.93
2018-02-14T07:52:57.274Z,-2.90
2018-02-14T07:59:02.655Z,-2.82
2018-02-14T08:05:07.173Z,-2.81
2018-02-14T08:11:11.690Z,-2.73
2018-02-14T08:17:16.217Z,-2.62
2018-02-14T08:23:21.683Z,-2.49
2018-02-14T08:29:27.247Z,-2.40
2018-02-14T08:35:31.738Z,-2.35
2018-02-14T08:41:36.272Z,-2.32
2018-02-14T08:47:41.035Z,-2.18
2018-02-14T08:53:45.574Z,-2.02
2018-02-14T08:59:51.584Z,-1.92
2018-02-14T09:05:56.191Z,-1.80
2018-02-14T09:12:00.798Z,-1.64
2018-02-14T09:18:05.427Z,-1.38
2018-02-14T09:24:09.929Z,-1.16
2018-02-14T09:30:15.242Z,-1.06
2018-02-14T09:36:20.986Z,-0.95
2018-02-14T09:42:25.662Z,-0.93
2018-02-14T09:48:30.301Z,-0.62
2018-02-14T09:54:35.545Z,-0.53
2018-02-14T10:00:40.831Z,-0.30
2018-02-14T10:06:45.375Z,-0.13
2018-02-14T10:12:51.406Z,0.02
2018-02-14T10:18:56.151Z,0.34
2018-02-14T10:25:01.400Z,0.54
2018-02-14T10:31:05.865Z,0.80
2018-02-14T10:37:10.379Z,1.07
2018-02-14T10:43:14.855Z,1.15
2018-02-14T10:49:20.165Z,1.12
2018-02-14T10:55:25.019Z,1.28
2018-02-14T11:01:35.012Z,1.34
2018-02-14T11:07:39.507Z,1.45
2018-02-14T11:13:44.028Z,1.58
2018-02-14T11:19:49.522Z,1.62
2018-02-14T11:25:55.154Z,1.79
2018-02-14T11:31:59.669Z,1.95
2018-02-14T11:38:04.142Z,2.27
2018-02-14T11:44:08.618Z,2.63
2018-02-14T11:50:13.232Z,2.91
2018-02-14T11:56:18.129Z,3.34
2018-02-14T12:02:23.376Z,3.50
2018-02-14T12:08:27.839Z,3.56
2018-02-14T12:14:32.306Z,3.64
2018-02-14T12:20:36.780Z,3.71
2018-02-14T12:26:41.294Z,3.87
2018-02-14T12:32:45.764Z,4.06
2018-02-14T12:38:51.639Z,4.07
2018-02-14T12:44:56.243Z,4.20
2018-02-14T12:51:00.706Z,4.42
2018-02-14T12:57:05.470Z,4.82
2018-02-14T13:03:09.937Z,4.87
2018-02-14T13:09:15.192Z,4.68
2018-02-14T13:15:20.476Z,4.69
2018-02-14T13:21:25.174Z,4.91
2018-02-14T13:27:29.718Z,5.13
2018-02-14T13:33:34.220Z,5.29
2018-02-14T13:39:39.032Z,5.28
2018-02-14T13:45:43.561Z,5.36
2018-02-14T13:51:48.019Z,5.14
2018-02-14T13:57:52.663Z,5.30
2018-02-14T14:03:57.172Z,5.54
2018-02-14T14:10:02.441Z,5.69
2018-02-14T14:16:07.914Z,5.35
2018-02-14T14:22:12.398Z,5.46
2018-02-14T14:28:16.929Z,5.34
2018-02-14T14:34:26.403Z,5.01
2018-02-14T14:40:31.660Z,5.08
2018-02-14T14:46:36.126Z,4.73
2018-02-14T14:52:40.566Z,4.70
2018-02-14T14:58:46.026Z,4.65
2018-02-14T15:04:50.550Z,4.75
2018-02-14T15:10:55.336Z,4.60
2018-02-14T15:17:00.579Z,4.62
2018-02-14T15:23:05.050Z,4.60
2018-02-14T15:29:09.730Z,4.55
2018-02-14T15:35:14.231Z,4.41
2018-02-14T15:41:18.831Z,4.37
2018-02-14T15:47:24.188Z,4.17
2018-02-14T15:53:28.835Z,4.03
2018-02-14T15:59:33.383Z,3.64
2018-02-14T16:05:37.858Z,3.09
2018-02-14T16:11:42.359Z,2.57
2018-02-14T16:17:46.872Z,1.98
2018-02-14T16:23:51.729Z,1.56
2018-02-14T16:29:56.230Z,1.22
2018-02-14T16:36:00.705Z,0.73
2018-02-14T16:42:05.192Z,0.56
2018-02-14T16:48:09.710Z,0.40
2018-02-14T16:54:14.208Z,0.25
2018-02-14T17:00:19.820Z,0.25
2018-02-14T17:06:24.667Z,0.18
2018-02-14T17:12:29.292Z,-0.02
2018-02-14T17:18:33.936Z,-0.17
2018-02-14T17:24:39.208Z,-0.16
2018-02-14T17:30:43.711Z,-0.31
2018-02-14T17:36:48.237Z,-0.34
2018-02-14T17:42:54.319Z,-0.37
2018-02-14T17:48:59.565Z,-0.23
2018-02-14T17:55:04.066Z,-0.34
2018-02-14T18:01:08.862Z,-0.42
2018-02-14T18:07:13.367Z,-0.43
2018-02-14T18:13:17.883Z,-0.49
2018-02-14T18:19:23.614Z,-0.54
2018-02-14T18:25:28.264Z,-0.69
2018-02-14T18:31:32.865Z,-0.84
2018-02-14T18:37:37.370Z,-0.93
2018-02-14T18:43:42.655Z,-0.97
2018-02-14T18:49:47.145Z,-0.83
2018-02-14T18:55:52.426Z,-0.93
2018-02-14T19:01:57.353Z,-0.87
2018-02-14T19:08:01.916Z,-1.05
2018-02-14T19:14:06.422Z,-0.88
2018-02-14T19:20:10.939Z,-0.86
2018-02-14T19:26:15.492Z,-0.85
2018-02-14T19:32:21.022Z,-0.82
2018-02-14T19:38:26.299Z,-0.87
2018-02-14T19:44:31.014Z,-0.95
2018-02-14T19:50:35.518Z,-1.12
2018-02-14T19:56:40.050Z,-1.11
2018-02-14T20:02:44.547Z,-1.26
2018-02-14T20:08:50.024Z,-1.32
2018-02-14T20:14:55.184Z,-1.52
2018-02-14T20:20:59.669Z,-1.42
2018-02-14T20:27:04.141Z,-1.48
2018-02-14T20:33:08.755Z,-1.51
2018-02-14T20:39:13.407Z,-1.48
2018-02-14T20:45:17.933Z,-1.45
2018-02-14T20:51:22.515Z,-1.33
2018-02-14T20:57:27.061Z,-1.28
2018-02-14T21:03:32.589Z,-1.02
2018-02-14T21:09:37.199Z,-0.83
2018-02-14T21:15:41.689Z,-0.99
2018-02-14T21:21:46.255Z,-0.97
2018-02-14T21:27:52.266Z,-1.07
2018-02-14T21:33:56.877Z,-0.96
2018-02-14T21:40:01.389Z,-0.97
2018-02-14T21:46:06.709Z,-0.88
2018-02-14T21:52:11.243Z,-0.81
2018-02-14T21:58:15.740Z,-0.86
2018-02-14T22:04:21.191Z,-1.04
2018-02-14T22:10:25.791Z,-0.95
2018-02-14T22:16:30.309Z,-0.97
2018-02-14T22:22:34.827Z,-0.66
2018-02-14T22:28:39.563Z,-0.62
2018-02-14T22:34:44.177Z,-0.58
2018-02-14T22:40:49.468Z,-0.69
2018-02-14T22:46:54.049Z,-0.93
2018-02-14T22:52:59.304Z,-0.98
2018-02-14T22:59:03.816Z,-1.11
2018-02-14T23:05:09.070Z,-1.30
2018-02-14T23:11:13.586Z,-1.14
2018-02-14T23:17:19.007Z,-1.21
2018-02-14T23:23:23.496Z,-1.20
2018-02-14T23:29:28.083Z,-1.11
2018-02-14T23:35:32.995Z,-1.11
2018-02-14T23:41:37.585Z,-1.23
2018-02-14T23:47:42.112Z,-1.29
2018-02-14T23:53:46.631Z,-1.37
2018-02-14T23:59:51.644Z,-1.46
